sensor_id;sensor_type;location;lat;lon;timestamp;temperature;humidity
40758;DHT22;26462;47.384;19.218;2023-06-26T00:00:56;19.80;99.90
40758;DHT22;26462;47.384;19.218;2023-06-26T00:03:23;19.80;99.90
40758;DHT22;26462;47.384;19.218;2023-06-26T00:05:50;19.70;99.90
40758;DHT22;26462;47.384;19.218;2023-06-26T00:08:17;19.70;99.90
40758;DHT22;26462;47.384;19.218;2023-06-26T00:10:44;19.70;99.90
40758;DHT22;26462;47.384;19.218;2023-06-26T00:13:13;19.70;99.90
40758;DHT22;26462;47.384;19.218;2023-06-26T00:15:41;19.60;99.90
40758;DHT22;26462;47.384;19.218;2023-06-26T00:18:08;19.60;99.90
40758;DHT22;26462;47.384;19.218;2023-06-26T00:20:35;19.60;99.90
40758;DHT22;26462;47.384;19.218;2023-06-26T00:23:03;19.60;99.90
40758;DHT22;26462;47.384;19.218;2023-06-26T00:25:34;19.50;99.90
40758;DHT22;26462;47.384;19.218;2023-06-26T00:28:04;19.50;99.90
40758;DHT22;26462;47.384;19.218;2023-06-26T00:30:31;19.50;99.90
40758;DHT22;26462;47.384;19.218;2023-06-26T00:32:59;19.50;99.90
40758;DHT22;26462;47.384;19.218;2023-06-26T00:35:26;19.50;99.90
40758;DHT22;26462;47.384;19.218;2023-06-26T00:37:53;19.40;99.90
40758;DHT22;26462;47.384;19.218;2023-06-26T00:40:20;19.40;99.90
40758;DHT22;26462;47.384;19.218;2023-06-26T00:42:47;19.50;99.90
40758;DHT22;26462;47.384;19.218;2023-06-26T00:45:14;19.50;99.90
40758;DHT22;26462;47.384;19.218;2023-06-26T00:47:43;19.40;99.90
40758;DHT22;26462;47.384;19.218;2023-06-26T00:50:11;19.40;99.90
40758;DHT22;26462;47.384;19.218;2023-06-26T00:52:38;19.40;99.90
40758;DHT22;26462;47.384;19.218;2023-06-26T00:55:06;19.40;99.90
40758;DHT22;26462;47.384;19.218;2023-06-26T00:57:35;19.40;99.90
40758;DHT22;26462;47.384;19.218;2023-06-26T01:00:03;19.50;99.90
40758;DHT22;26462;47.384;19.218;2023-06-26T01:02:31;19.50;99.90
40758;DHT22;26462;47.384;19.218;2023-06-26T01:05:02;19.50;99.90
40758;DHT22;26462;47.384;19.218;2023-06-26T01:07:35;19.50;99.90
40758;DHT22;26462;47.384;19.218;2023-06-26T01:10:04;19.50;99.90
40758;DHT22;26462;47.384;19.218;2023-06-26T01:12:33;19.50;99.90
40758;DHT22;26462;47.384;19.218;2023-06-26T01:15:00;19.50;99.90
40758;DHT22;26462;47.384;19.218;2023-06-26T01:17:28;19.40;99.90
40758;DHT22;26462;47.384;19.218;2023-06-26T01:20:00;19.40;99.90
40758;DHT22;26462;47.384;19.218;2023-06-26T01:25:29;19.40;99.90
40758;DHT22;26462;47.384;19.218;2023-06-26T01:28:06;19.40;99.90
40758;DHT22;26462;47.384;19.218;2023-06-26T01:30:37;19.40;99.90
40758;DHT22;26462;47.384;19.218;2023-06-26T01:33:05;19.40;99.90
40758;DHT22;26462;47.384;19.218;2023-06-26T01:35:33;19.40;99.90
40758;DHT22;26462;47.384;19.218;2023-06-26T01:38:17;19.40;99.90
40758;DHT22;26462;47.384;19.218;2023-06-26T01:40:44;19.30;99.90
40758;DHT22;26462;47.384;19.218;2023-06-26T01:43:21;19.30;99.90
40758;DHT22;26462;47.384;19.218;2023-06-26T01:45:54;19.30;99.90
40758;DHT22;26462;47.384;19.218;2023-06-26T01:48:32;19.30;99.90
40758;DHT22;26462;47.384;19.218;2023-06-26T01:51:01;19.20;99.90
40758;DHT22;26462;47.384;19.218;2023-06-26T01:53:34;19.30;99.90
40758;DHT22;26462;47.384;19.218;2023-06-26T01:56:08;19.30;99.90
40758;DHT22;26462;47.384;19.218;2023-06-26T01:58:43;19.30;99.90
40758;DHT22;26462;47.384;19.218;2023-06-26T02:01:12;19.30;99.90
40758;DHT22;26462;47.384;19.218;2023-06-26T02:03:40;19.30;99.90
40758;DHT22;26462;47.384;19.218;2023-06-26T02:06:07;19.30;99.90
40758;DHT22;26462;47.384;19.218;2023-06-26T02:08:35;19.30;99.90
40758;DHT22;26462;47.384;19.218;2023-06-26T02:11:02;19.30;99.90
40758;DHT22;26462;47.384;19.218;2023-06-26T02:13:29;19.20;99.90
40758;DHT22;26462;47.384;19.218;2023-06-26T02:15:56;19.20;99.90
40758;DHT22;26462;47.384;19.218;2023-06-26T02:18:24;19.20;99.90
40758;DHT22;26462;47.384;19.218;2023-06-26T02:20:51;18.60;99.90
40758;DHT22;26462;47.384;19.218;2023-06-26T02:23:21;19.20;99.90
40758;DHT22;26462;47.384;19.218;2023-06-26T02:25:48;19.20;99.90
40758;DHT22;26462;47.384;19.218;2023-06-26T02:28:15;19.10;99.90
40758;DHT22;26462;47.384;19.218;2023-06-26T02:30:43;19.10;99.90
40758;DHT22;26462;47.384;19.218;2023-06-26T02:33:10;19.10;99.90
40758;DHT22;26462;47.384;19.218;2023-06-26T02:35:37;19.10;99.90
40758;DHT22;26462;47.384;19.218;2023-06-26T02:38:04;19.10;99.90
40758;DHT22;26462;47.384;19.218;2023-06-26T02:40:31;19.10;99.90
40758;DHT22;26462;47.384;19.218;2023-06-26T02:43:01;19.10;99.90
40758;DHT22;26462;47.384;19.218;2023-06-26T02:45:30;19.00;99.90
40758;DHT22;26462;47.384;19.218;2023-06-26T02:47:57;18.90;99.90
40758;DHT22;26462;47.384;19.218;2023-06-26T02:50:25;19.00;99.90
40758;DHT22;26462;47.384;19.218;2023-06-26T02:53:04;19.00;99.90
40758;DHT22;26462;47.384;19.218;2023-06-26T02:55:31;19.10;99.90
40758;DHT22;26462;47.384;19.218;2023-06-26T02:57:58;19.10;99.90
40758;DHT22;26462;47.384;19.218;2023-06-26T03:00:25;19.10;99.90
40758;DHT22;26462;47.384;19.218;2023-06-26T03:02:54;19.20;99.90
40758;DHT22;26462;47.384;19.218;2023-06-26T03:05:22;19.10;99.90
40758;DHT22;26462;47.384;19.218;2023-06-26T03:07:51;19.10;99.90
40758;DHT22;26462;47.384;19.218;2023-06-26T03:10:18;19.20;99.90
40758;DHT22;26462;47.384;19.218;2023-06-26T03:12:46;19.00;99.90
40758;DHT22;26462;47.384;19.218;2023-06-26T03:15:13;18.90;99.90
40758;DHT22;26462;47.384;19.218;2023-06-26T03:17:40;19.00;99.90
40758;DHT22;26462;47.384;19.218;2023-06-26T03:20:11;19.10;99.90
40758;DHT22;26462;47.384;19.218;2023-06-26T03:22:46;19.10;99.90
40758;DHT22;26462;47.384;19.218;2023-06-26T03:25:15;19.10;99.90
40758;DHT22;26462;47.384;19.218;2023-06-26T03:27:43;19.10;99.90
40758;DHT22;26462;47.384;19.218;2023-06-26T03:30:11;19.10;99.90
40758;DHT22;26462;47.384;19.218;2023-06-26T03:32:40;19.10;99.90
40758;DHT22;26462;47.384;19.218;2023-06-26T03:35:08;18.90;99.90
40758;DHT22;26462;47.384;19.218;2023-06-26T03:37:36;19.00;99.90
40758;DHT22;26462;47.384;19.218;2023-06-26T03:40:05;19.10;99.90
40758;DHT22;26462;47.384;19.218;2023-06-26T03:42:33;19.00;99.90
40758;DHT22;26462;47.384;19.218;2023-06-26T03:45:01;19.20;99.90
40758;DHT22;26462;47.384;19.218;2023-06-26T03:47:29;19.20;99.90
40758;DHT22;26462;47.384;19.218;2023-06-26T03:49:57;19.20;99.90
40758;DHT22;26462;47.384;19.218;2023-06-26T03:52:24;19.20;99.90
40758;DHT22;26462;47.384;19.218;2023-06-26T03:54:52;19.20;99.90
40758;DHT22;26462;47.384;19.218;2023-06-26T03:57:23;19.20;99.90
40758;DHT22;26462;47.384;19.218;2023-06-26T03:59:52;19.20;99.90
40758;DHT22;26462;47.384;19.218;2023-06-26T04:02:21;19.10;99.90
40758;DHT22;26462;47.384;19.218;2023-06-26T04:04:53;19.10;99.90
40758;DHT22;26462;47.384;19.218;2023-06-26T04:07:20;19.10;99.90
40758;DHT22;26462;47.384;19.218;2023-06-26T04:09:48;19.30;99.90
40758;DHT22;26462;47.384;19.218;2023-06-26T04:12:16;18.80;99.90
40758;DHT22;26462;47.384;19.218;2023-06-26T04:14:46;19.00;99.90
40758;DHT22;26462;47.384;19.218;2023-06-26T04:17:14;19.50;99.90
40758;DHT22;26462;47.384;19.218;2023-06-26T04:19:44;19.60;99.90
40758;DHT22;26462;47.384;19.218;2023-06-26T04:22:11;19.60;99.90
40758;DHT22;26462;47.384;19.218;2023-06-26T04:24:39;18.40;99.90
40758;DHT22;26462;47.384;19.218;2023-06-26T04:27:11;19.90;99.90
40758;DHT22;26462;47.384;19.218;2023-06-26T04:29:41;20.20;99.90
40758;DHT22;26462;47.384;19.218;2023-06-26T04:32:14;19.80;99.90
40758;DHT22;26462;47.384;19.218;2023-06-26T04:34:44;19.90;99.90
40758;DHT22;26462;47.384;19.218;2023-06-26T04:37:13;20.00;99.90
40758;DHT22;26462;47.384;19.218;2023-06-26T04:39:43;20.10;99.90
40758;DHT22;26462;47.384;19.218;2023-06-26T04:42:11;20.10;99.90
40758;DHT22;26462;47.384;19.218;2023-06-26T04:44:39;20.20;99.90
40758;DHT22;26462;47.384;19.218;2023-06-26T04:47:08;21.10;99.90
40758;DHT22;26462;47.384;19.218;2023-06-26T04:49:35;20.50;99.90
40758;DHT22;26462;47.384;19.218;2023-06-26T04:52:05;20.50;99.90
40758;DHT22;26462;47.384;19.218;2023-06-26T04:54:32;20.50;99.90
40758;DHT22;26462;47.384;19.218;2023-06-26T04:57:00;20.60;99.90
40758;DHT22;26462;47.384;19.218;2023-06-26T04:59:27;20.70;99.90
40758;DHT22;26462;47.384;19.218;2023-06-26T05:01:55;20.80;99.90
40758;DHT22;26462;47.384;19.218;2023-06-26T05:04:22;20.80;99.90
40758;DHT22;26462;47.384;19.218;2023-06-26T05:06:49;21.00;99.90
40758;DHT22;26462;47.384;19.218;2023-06-26T05:09:17;21.10;99.90
40758;DHT22;26462;47.384;19.218;2023-06-26T05:11:47;21.10;99.90
40758;DHT22;26462;47.384;19.218;2023-06-26T05:14:15;20.90;99.90
40758;DHT22;26462;47.384;19.218;2023-06-26T05:16:42;21.10;99.80
40758;DHT22;26462;47.384;19.218;2023-06-26T05:19:09;21.40;99.90
40758;DHT22;26462;47.384;19.218;2023-06-26T05:21:37;21.50;99.90
40758;DHT22;26462;47.384;19.218;2023-06-26T05:24:06;21.60;99.90
40758;DHT22;26462;47.384;19.218;2023-06-26T05:26:34;21.70;99.50
40758;DHT22;26462;47.384;19.218;2023-06-26T05:29:03;21.80;99.50
40758;DHT22;26462;47.384;19.218;2023-06-26T05:31:32;22.00;99.00
40758;DHT22;26462;47.384;19.218;2023-06-26T05:34:03;22.10;96.60
40758;DHT22;26462;47.384;19.218;2023-06-26T05:36:31;22.20;95.70
40758;DHT22;26462;47.384;19.218;2023-06-26T05:39:00;22.50;95.40
40758;DHT22;26462;47.384;19.218;2023-06-26T05:41:28;22.50;95.20
40758;DHT22;26462;47.384;19.218;2023-06-26T05:43:55;22.70;93.60
40758;DHT22;26462;47.384;19.218;2023-06-26T05:46:22;22.70;92.60
40758;DHT22;26462;47.384;19.218;2023-06-26T05:48:49;22.90;92.50
40758;DHT22;26462;47.384;19.218;2023-06-26T05:51:17;22.90;91.60
40758;DHT22;26462;47.384;19.218;2023-06-26T05:53:44;23.00;91.70
40758;DHT22;26462;47.384;19.218;2023-06-26T05:56:12;23.10;91.50
40758;DHT22;26462;47.384;19.218;2023-06-26T05:58:40;23.30;91.80
40758;DHT22;26462;47.384;19.218;2023-06-26T06:01:09;23.40;91.80
40758;DHT22;26462;47.384;19.218;2023-06-26T06:03:36;23.50;90.30
40758;DHT22;26462;47.384;19.218;2023-06-26T06:06:04;23.50;90.00
40758;DHT22;26462;47.384;19.218;2023-06-26T06:08:32;23.60;89.80
40758;DHT22;26462;47.384;19.218;2023-06-26T06:11:00;23.70;89.50
40758;DHT22;26462;47.384;19.218;2023-06-26T06:13:27;23.70;88.90
40758;DHT22;26462;47.384;19.218;2023-06-26T06:15:55;23.80;88.70
40758;DHT22;26462;47.384;19.218;2023-06-26T06:18:23;23.90;89.50
40758;DHT22;26462;47.384;19.218;2023-06-26T06:20:50;24.00;86.20
40758;DHT22;26462;47.384;19.218;2023-06-26T06:23:17;24.00;88.40
40758;DHT22;26462;47.384;19.218;2023-06-26T06:25:45;24.10;87.20
40758;DHT22;26462;47.384;19.218;2023-06-26T06:28:12;24.20;87.30
40758;DHT22;26462;47.384;19.218;2023-06-26T06:30:43;24.20;85.20
40758;DHT22;26462;47.384;19.218;2023-06-26T06:33:12;24.30;85.00
40758;DHT22;26462;47.384;19.218;2023-06-26T06:35:39;24.20;83.70
40758;DHT22;26462;47.384;19.218;2023-06-26T06:38:06;24.30;84.20
40758;DHT22;26462;47.384;19.218;2023-06-26T06:40:33;24.30;84.10
40758;DHT22;26462;47.384;19.218;2023-06-26T06:43:00;24.40;84.30
40758;DHT22;26462;47.384;19.218;2023-06-26T06:45:27;24.60;85.40
40758;DHT22;26462;47.384;19.218;2023-06-26T06:47:55;24.70;84.60
40758;DHT22;26462;47.384;19.218;2023-06-26T06:50:22;24.90;84.70
40758;DHT22;26462;47.384;19.218;2023-06-26T06:52:49;25.00;84.30
40758;DHT22;26462;47.384;19.218;2023-06-26T06:55:16;25.00;85.10
40758;DHT22;26462;47.384;19.218;2023-06-26T06:57:43;25.20;84.60
40758;DHT22;26462;47.384;19.218;2023-06-26T07:00:12;25.20;83.50
40758;DHT22;26462;47.384;19.218;2023-06-26T07:02:43;25.20;83.00
40758;DHT22;26462;47.384;19.218;2023-06-26T07:05:16;25.40;84.40
40758;DHT22;26462;47.384;19.218;2023-06-26T07:07:43;25.50;82.10
40758;DHT22;26462;47.384;19.218;2023-06-26T07:10:13;25.60;82.10
40758;DHT22;26462;47.384;19.218;2023-06-26T07:12:40;25.60;81.60
40758;DHT22;26462;47.384;19.218;2023-06-26T07:15:08;25.80;82.30
40758;DHT22;26462;47.384;19.218;2023-06-26T07:17:35;25.80;81.20
40758;DHT22;26462;47.384;19.218;2023-06-26T07:20:05;25.80;79.80
40758;DHT22;26462;47.384;19.218;2023-06-26T07:22:36;25.80;78.90
40758;DHT22;26462;47.384;19.218;2023-06-26T07:25:03;25.80;77.00
40758;DHT22;26462;47.384;19.218;2023-06-26T07:27:31;25.80;76.00
40758;DHT22;26462;47.384;19.218;2023-06-26T07:30:00;25.90;76.50
40758;DHT22;26462;47.384;19.218;2023-06-26T07:32:28;26.00;76.80
40758;DHT22;26462;47.384;19.218;2023-06-26T07:34:55;26.00;75.40
40758;DHT22;26462;47.384;19.218;2023-06-26T07:37:22;26.10;76.30
40758;DHT22;26462;47.384;19.218;2023-06-26T07:39:50;26.20;78.50
40758;DHT22;26462;47.384;19.218;2023-06-26T07:42:17;26.20;77.80
40758;DHT22;26462;47.384;19.218;2023-06-26T07:44:44;26.30;76.60
40758;DHT22;26462;47.384;19.218;2023-06-26T07:47:11;26.20;75.70
40758;DHT22;26462;47.384;19.218;2023-06-26T07:49:39;26.20;75.80
40758;DHT22;26462;47.384;19.218;2023-06-26T07:52:07;26.30;77.00
40758;DHT22;26462;47.384;19.218;2023-06-26T07:54:37;26.30;74.70
40758;DHT22;26462;47.384;19.218;2023-06-26T07:57:05;26.30;74.50
40758;DHT22;26462;47.384;19.218;2023-06-26T07:59:36;26.00;72.60
40758;DHT22;26462;47.384;19.218;2023-06-26T08:02:03;26.10;73.50
40758;DHT22;26462;47.384;19.218;2023-06-26T08:04:30;26.10;73.70
40758;DHT22;26462;47.384;19.218;2023-06-26T08:07:00;26.20;73.80
40758;DHT22;26462;47.384;19.218;2023-06-26T08:09:28;26.20;74.40
40758;DHT22;26462;47.384;19.218;2023-06-26T08:11:56;26.40;75.10
40758;DHT22;26462;47.384;19.218;2023-06-26T08:14:24;26.50;74.40
40758;DHT22;26462;47.384;19.218;2023-06-26T08:16:51;26.50;72.90
40758;DHT22;26462;47.384;19.218;2023-06-26T08:19:19;26.40;73.40
40758;DHT22;26462;47.384;19.218;2023-06-26T08:21:46;26.30;72.30
40758;DHT22;26462;47.384;19.218;2023-06-26T08:24:14;26.20;72.90
40758;DHT22;26462;47.384;19.218;2023-06-26T08:26:46;26.40;75.40
40758;DHT22;26462;47.384;19.218;2023-06-26T08:29:14;26.50;74.30
40758;DHT22;26462;47.384;19.218;2023-06-26T08:31:42;26.50;76.10
40758;DHT22;26462;47.384;19.218;2023-06-26T08:34:10;26.80;74.20
40758;DHT22;26462;47.384;19.218;2023-06-26T08:36:37;26.70;72.90
40758;DHT22;26462;47.384;19.218;2023-06-26T08:39:04;26.70;74.10
40758;DHT22;26462;47.384;19.218;2023-06-26T08:41:32;26.70;74.10
40758;DHT22;26462;47.384;19.218;2023-06-26T08:44:00;26.70;72.70
40758;DHT22;26462;47.384;19.218;2023-06-26T08:46:28;26.70;72.30
40758;DHT22;26462;47.384;19.218;2023-06-26T08:48:57;26.90;73.70
40758;DHT22;26462;47.384;19.218;2023-06-26T08:51:28;27.00;73.00
40758;DHT22;26462;47.384;19.218;2023-06-26T08:53:59;27.00;71.50
40758;DHT22;26462;47.384;19.218;2023-06-26T08:56:38;27.00;70.70
40758;DHT22;26462;47.384;19.218;2023-06-26T08:59:07;27.00;71.80
40758;DHT22;26462;47.384;19.218;2023-06-26T09:01:37;27.00;70.90
40758;DHT22;26462;47.384;19.218;2023-06-26T09:04:05;26.80;71.00
40758;DHT22;26462;47.384;19.218;2023-06-26T09:06:33;27.00;74.10
40758;DHT22;26462;47.384;19.218;2023-06-26T09:09:01;27.20;76.60
40758;DHT22;26462;47.384;19.218;2023-06-26T09:11:28;26.90;69.20
40758;DHT22;26462;47.384;19.218;2023-06-26T09:13:55;26.80;70.30
40758;DHT22;26462;47.384;19.218;2023-06-26T09:16:26;27.00;71.50
40758;DHT22;26462;47.384;19.218;2023-06-26T09:18:56;27.20;72.10
40758;DHT22;26462;47.384;19.218;2023-06-26T09:21:23;27.40;71.40
40758;DHT22;26462;47.384;19.218;2023-06-26T09:23:54;27.40;70.90
40758;DHT22;26462;47.384;19.218;2023-06-26T09:26:21;27.40;72.10
40758;DHT22;26462;47.384;19.218;2023-06-26T09:28:49;27.30;71.50
40758;DHT22;26462;47.384;19.218;2023-06-26T09:31:17;27.30;72.20
40758;DHT22;26462;47.384;19.218;2023-06-26T09:34:04;27.30;71.40
40758;DHT22;26462;47.384;19.218;2023-06-26T09:36:32;27.40;72.50
40758;DHT22;26462;47.384;19.218;2023-06-26T09:39:04;27.50;71.00
40758;DHT22;26462;47.384;19.218;2023-06-26T09:41:36;27.50;71.60
40758;DHT22;26462;47.384;19.218;2023-06-26T09:44:05;27.50;71.50
40758;DHT22;26462;47.384;19.218;2023-06-26T09:46:33;27.30;67.60
40758;DHT22;26462;47.384;19.218;2023-06-26T09:49:05;27.40;71.70
40758;DHT22;26462;47.384;19.218;2023-06-26T09:51:34;27.40;71.60
40758;DHT22;26462;47.384;19.218;2023-06-26T09:54:03;27.40;69.80
40758;DHT22;26462;47.384;19.218;2023-06-26T09:56:31;27.30;69.00
40758;DHT22;26462;47.384;19.218;2023-06-26T09:59:00;27.30;69.60
40758;DHT22;26462;47.384;19.218;2023-06-26T10:01:28;26.80;69.60
40758;DHT22;26462;47.384;19.218;2023-06-26T10:03:56;26.40;69.50
40758;DHT22;26462;47.384;19.218;2023-06-26T10:06:28;26.10;71.50
40758;DHT22;26462;47.384;19.218;2023-06-26T10:09:00;25.90;71.00
40758;DHT22;26462;47.384;19.218;2023-06-26T10:11:54;25.80;72.40
40758;DHT22;26462;47.384;19.218;2023-06-26T10:14:26;25.70;72.50
40758;DHT22;26462;47.384;19.218;2023-06-26T10:16:58;25.70;73.30
40758;DHT22;26462;47.384;19.218;2023-06-26T10:19:27;25.70;72.20
40758;DHT22;26462;47.384;19.218;2023-06-26T10:21:55;25.60;72.60
40758;DHT22;26462;47.384;19.218;2023-06-26T10:24:24;25.60;73.60
40758;DHT22;26462;47.384;19.218;2023-06-26T10:26:57;25.50;73.00
40758;DHT22;26462;47.384;19.218;2023-06-26T10:29:26;25.80;73.70
40758;DHT22;26462;47.384;19.218;2023-06-26T10:31:56;26.20;73.30
40758;DHT22;26462;47.384;19.218;2023-06-26T10:34:28;26.50;73.20
40758;DHT22;26462;47.384;19.218;2023-06-26T10:37:00;26.60;72.50
40758;DHT22;26462;47.384;19.218;2023-06-26T10:39:28;26.80;72.10
40758;DHT22;26462;47.384;19.218;2023-06-26T10:42:09;26.90;73.00
40758;DHT22;26462;47.384;19.218;2023-06-26T10:44:43;26.90;70.00
40758;DHT22;26462;47.384;19.218;2023-06-26T10:47:28;27.00;67.50
40758;DHT22;26462;47.384;19.218;2023-06-26T10:49:57;26.90;68.60
40758;DHT22;26462;47.384;19.218;2023-06-26T10:56:03;27.30;68.20
40758;DHT22;26462;47.384;19.218;2023-06-26T11:01:22;27.20;66.10
40758;DHT22;26462;47.384;19.218;2023-06-26T11:06:24;27.40;67.30
40758;DHT22;26462;47.384;19.218;2023-06-26T11:14:23;27.40;65.50
40758;DHT22;26462;47.384;19.218;2023-06-26T11:16:50;27.30;65.60
40758;DHT22;26462;47.384;19.218;2023-06-26T11:19:19;27.00;66.80
40758;DHT22;26462;47.384;19.218;2023-06-26T11:21:46;26.80;68.00
40758;DHT22;26462;47.384;19.218;2023-06-26T11:24:14;26.50;66.90
40758;DHT22;26462;47.384;19.218;2023-06-26T11:26:42;26.40;67.90
40758;DHT22;26462;47.384;19.218;2023-06-26T11:29:11;26.40;68.60
40758;DHT22;26462;47.384;19.218;2023-06-26T11:31:40;26.30;68.70
40758;DHT22;26462;47.384;19.218;2023-06-26T11:34:12;26.30;69.80
40758;DHT22;26462;47.384;19.218;2023-06-26T11:36:41;26.30;68.30
40758;DHT22;26462;47.384;19.218;2023-06-26T11:39:10;26.30;68.40
40758;DHT22;26462;47.384;19.218;2023-06-26T11:41:39;26.10;68.50
40758;DHT22;26462;47.384;19.218;2023-06-26T11:44:08;26.40;68.50
40758;DHT22;26462;47.384;19.218;2023-06-26T11:46:37;26.70;67.50
40758;DHT22;26462;47.384;19.218;2023-06-26T11:49:07;27.00;68.40
40758;DHT22;26462;47.384;19.218;2023-06-26T11:51:35;27.20;67.30
40758;DHT22;26462;47.384;19.218;2023-06-26T11:54:05;27.20;66.90
40758;DHT22;26462;47.384;19.218;2023-06-26T11:56:32;27.30;67.00
40758;DHT22;26462;47.384;19.218;2023-06-26T11:59:00;27.40;67.00
40758;DHT22;26462;47.384;19.218;2023-06-26T12:01:35;27.40;65.40
40758;DHT22;26462;47.384;19.218;2023-06-26T12:04:04;27.30;66.30
40758;DHT22;26462;47.384;19.218;2023-06-26T12:06:34;27.20;65.60
40758;DHT22;26462;47.384;19.218;2023-06-26T12:09:03;27.40;67.10
40758;DHT22;26462;47.384;19.218;2023-06-26T12:11:33;27.50;65.30
40758;DHT22;26462;47.384;19.218;2023-06-26T12:14:01;27.50;67.00
40758;DHT22;26462;47.384;19.218;2023-06-26T12:16:30;27.60;67.10
40758;DHT22;26462;47.384;19.218;2023-06-26T12:19:05;27.70;67.10
40758;DHT22;26462;47.384;19.218;2023-06-26T12:24:21;27.50;67.20
40758;DHT22;26462;47.384;19.218;2023-06-26T12:26:53;27.50;66.70
40758;DHT22;26462;47.384;19.218;2023-06-26T12:29:31;27.50;67.40
40758;DHT22;26462;47.384;19.218;2023-06-26T12:31:59;27.70;68.30
40758;DHT22;26462;47.384;19.218;2023-06-26T12:34:30;27.80;66.40
40758;DHT22;26462;47.384;19.218;2023-06-26T12:37:16;27.90;66.50
40758;DHT22;26462;47.384;19.218;2023-06-26T12:39:51;27.90;65.60
40758;DHT22;26462;47.384;19.218;2023-06-26T12:42:26;28.00;66.10
40758;DHT22;26462;47.384;19.218;2023-06-26T12:44:54;28.00;66.30
40758;DHT22;26462;47.384;19.218;2023-06-26T12:47:25;27.60;63.80
40758;DHT22;26462;47.384;19.218;2023-06-26T12:49:54;27.30;64.90
40758;DHT22;26462;47.384;19.218;2023-06-26T12:52:22;27.20;65.90
40758;DHT22;26462;47.384;19.218;2023-06-26T12:54:53;27.10;66.30
40758;DHT22;26462;47.384;19.218;2023-06-26T12:57:21;27.00;65.90
40758;DHT22;26462;47.384;19.218;2023-06-26T12:59:49;26.90;65.80
40758;DHT22;26462;47.384;19.218;2023-06-26T13:02:16;26.80;66.00
40758;DHT22;26462;47.384;19.218;2023-06-26T13:04:44;26.80;67.30
40758;DHT22;26462;47.384;19.218;2023-06-26T13:07:12;27.00;67.10
40758;DHT22;26462;47.384;19.218;2023-06-26T13:09:39;27.30;66.70
40758;DHT22;26462;47.384;19.218;2023-06-26T13:12:08;27.40;65.30
40758;DHT22;26462;47.384;19.218;2023-06-26T13:14:35;27.60;66.80
40758;DHT22;26462;47.384;19.218;2023-06-26T13:17:03;27.60;66.10
40758;DHT22;26462;47.384;19.218;2023-06-26T13:19:36;27.40;65.90
40758;DHT22;26462;47.384;19.218;2023-06-26T13:22:03;27.20;67.60
40758;DHT22;26462;47.384;19.218;2023-06-26T13:24:30;27.10;67.50
40758;DHT22;26462;47.384;19.218;2023-06-26T13:26:57;27.10;66.80
40758;DHT22;26462;47.384;19.218;2023-06-26T13:29:24;27.10;67.30
40758;DHT22;26462;47.384;19.218;2023-06-26T13:31:52;27.00;68.20
40758;DHT22;26462;47.384;19.218;2023-06-26T13:34:20;26.90;67.60
40758;DHT22;26462;47.384;19.218;2023-06-26T13:36:49;26.90;68.90
40758;DHT22;26462;47.384;19.218;2023-06-26T13:39:16;26.80;69.90
40758;DHT22;26462;47.384;19.218;2023-06-26T13:41:44;27.00;69.50
40758;DHT22;26462;47.384;19.218;2023-06-26T13:44:11;27.20;69.30
40758;DHT22;26462;47.384;19.218;2023-06-26T13:46:57;27.40;67.90
40758;DHT22;26462;47.384;19.218;2023-06-26T13:49:25;27.60;65.30
40758;DHT22;26462;47.384;19.218;2023-06-26T13:51:52;27.60;66.50
40758;DHT22;26462;47.384;19.218;2023-06-26T13:54:19;27.70;64.60
40758;DHT22;26462;47.384;19.218;2023-06-26T13:56:47;27.80;67.00
40758;DHT22;26462;47.384;19.218;2023-06-26T13:59:14;27.70;65.70
40758;DHT22;26462;47.384;19.218;2023-06-26T14:01:41;27.80;66.10
40758;DHT22;26462;47.384;19.218;2023-06-26T14:04:11;27.70;66.70
40758;DHT22;26462;47.384;19.218;2023-06-26T14:06:38;27.40;66.20
40758;DHT22;26462;47.384;19.218;2023-06-26T14:09:06;27.30;67.00
40758;DHT22;26462;47.384;19.218;2023-06-26T14:11:34;27.20;66.70
40758;DHT22;26462;47.384;19.218;2023-06-26T14:14:01;27.00;66.10
40758;DHT22;26462;47.384;19.218;2023-06-26T14:16:29;27.00;67.10
40758;DHT22;26462;47.384;19.218;2023-06-26T14:18:56;26.90;66.30
40758;DHT22;26462;47.384;19.218;2023-06-26T14:21:24;26.90;67.60
40758;DHT22;26462;47.384;19.218;2023-06-26T14:23:51;26.80;67.40
40758;DHT22;26462;47.384;19.218;2023-06-26T14:26:18;26.80;67.10
40758;DHT22;26462;47.384;19.218;2023-06-26T14:28:45;26.70;66.10
40758;DHT22;26462;47.384;19.218;2023-06-26T14:31:13;26.70;67.80
40758;DHT22;26462;47.384;19.218;2023-06-26T14:33:40;26.70;69.50
40758;DHT22;26462;47.384;19.218;2023-06-26T14:36:08;26.60;67.40
40758;DHT22;26462;47.384;19.218;2023-06-26T14:38:35;26.70;68.60
40758;DHT22;26462;47.384;19.218;2023-06-26T14:41:02;26.80;68.40
40758;DHT22;26462;47.384;19.218;2023-06-26T14:43:29;27.00;69.20
40758;DHT22;26462;47.384;19.218;2023-06-26T14:45:57;27.00;67.90
40758;DHT22;26462;47.384;19.218;2023-06-26T14:48:24;27.00;67.90
40758;DHT22;26462;47.384;19.218;2023-06-26T14:50:54;27.10;68.40
40758;DHT22;26462;47.384;19.218;2023-06-26T14:53:21;27.10;68.40
40758;DHT22;26462;47.384;19.218;2023-06-26T14:55:49;27.20;68.20
40758;DHT22;26462;47.384;19.218;2023-06-26T14:58:16;27.10;68.70
40758;DHT22;26462;47.384;19.218;2023-06-26T15:00:43;27.00;68.50
40758;DHT22;26462;47.384;19.218;2023-06-26T15:03:11;26.90;69.60
40758;DHT22;26462;47.384;19.218;2023-06-26T15:05:38;26.80;69.50
40758;DHT22;26462;47.384;19.218;2023-06-26T15:08:05;26.90;68.50
40758;DHT22;26462;47.384;19.218;2023-06-26T15:10:32;26.80;69.40
40758;DHT22;26462;47.384;19.218;2023-06-26T15:13:00;26.70;70.40
40758;DHT22;26462;47.384;19.218;2023-06-26T15:15:27;26.70;70.30
40758;DHT22;26462;47.384;19.218;2023-06-26T15:17:55;26.70;69.40
40758;DHT22;26462;47.384;19.218;2023-06-26T15:20:22;26.60;67.40
40758;DHT22;26462;47.384;19.218;2023-06-26T15:22:49;26.50;68.10
40758;DHT22;26462;47.384;19.218;2023-06-26T15:25:16;26.50;68.80
40758;DHT22;26462;47.384;19.218;2023-06-26T15:27:43;26.40;70.20
40758;DHT22;26462;47.384;19.218;2023-06-26T15:30:11;26.40;70.60
40758;DHT22;26462;47.384;19.218;2023-06-26T15:32:38;26.40;69.00
40758;DHT22;26462;47.384;19.218;2023-06-26T15:35:06;26.40;68.70
40758;DHT22;26462;47.384;19.218;2023-06-26T15:37:33;26.30;69.00
40758;DHT22;26462;47.384;19.218;2023-06-26T15:40:00;26.30;69.70
40758;DHT22;26462;47.384;19.218;2023-06-26T15:42:28;26.30;69.00
40758;DHT22;26462;47.384;19.218;2023-06-26T15:44:58;26.30;68.90